Time;durP1;ratioP1;P1;durP2;ratioP2;P2;SDS_P1;SDS_P2;PMS_P1;PMS_P2;Temp;Humidity;BMP_temperature;BMP_pressure;BME280_temperature;BME280_humidity;BME280_pressure;Samples;Min_cycle;Max_cycle;Signal;HPM_P1;HPM_P2
2022/06/08 00:00:45;;;;;;;2.30;1.60;;;;;;;14.29;100.00;97904.25;5055283;28;20239;-73
2022/06/08 00:03:14;;;;;;;1.70;1.60;;;;;;;14.20;100.00;97896.25;5055221;28;20216;-73
2022/06/08 00:05:43;;;;;;;1.63;1.53;;;;;;;14.15;100.00;97890.44;5055299;28;20319;-73
2022/06/08 00:08:09;;;;;;;1.70;1.60;;;;;;;14.16;100.00;97892.13;5055247;28;20301;-73
2022/06/08 00:10:37;;;;;;;1.50;1.40;;;;;;;14.23;100.00;97890.66;5055495;28;20242;-73
2022/06/08 00:13:05;;;;;;;3.63;1.83;;;;;;;14.23;100.00;97885.34;5053811;28;20641;-73
2022/06/08 00:15:32;;;;;;;1.90;1.80;;;;;;;14.27;100.00;97892.06;5055344;28;20310;-73
2022/06/08 00:17:59;;;;;;;2.17;1.50;;;;;;;14.24;100.00;97887.03;5054969;28;20704;-72
2022/06/08 00:20:26;;;;;;;1.60;1.50;;;;;;;14.29;100.00;97890.13;5055214;28;20211;-73
2022/06/08 00:22:54;;;;;;;1.93;1.77;;;;;;;14.31;100.00;97880.19;5054877;28;20310;-73
2022/06/08 00:25:22;;;;;;;2.60;1.77;;;;;;;14.36;100.00;97881.47;5055119;28;20219;-75
2022/06/08 00:27:48;;;;;;;1.93;1.80;;;;;;;14.43;100.00;97879.13;5054990;28;20257;-73
2022/06/08 00:30:15;;;;;;;2.00;1.80;;;;;;;14.50;100.00;97877.59;5054636;28;20741;-75
2022/06/08 00:32:42;;;;;;;2.43;1.80;;;;;;;14.56;100.00;97877.03;5055071;28;20273;-73
2022/06/08 00:35:10;;;;;;;2.10;1.50;;;;;;;14.59;100.00;97866.97;5055100;28;20303;-74
2022/06/08 00:37:37;;;;;;;2.00;1.90;;;;;;;14.57;100.00;97868.09;5054170;28;20683;-73
2022/06/08 00:40:08;;;;;;;2.83;1.63;;;;;;;14.61;100.00;97870.31;5053465;28;20258;-73
2022/06/08 00:42:35;;;;;;;1.57;1.47;;;;;;;14.71;100.00;97870.34;5054848;28;20251;-73
2022/06/08 00:45:07;;;;;;;1.73;1.60;;;;;;;14.77;100.00;97873.31;5054431;28;20739;-74
2022/06/08 00:47:37;;;;;;;3.00;1.73;;;;;;;14.77;100.00;97870.63;5054927;28;20215;-74
2022/06/08 00:50:08;;;;;;;1.60;1.50;;;;;;;14.79;100.00;97857.22;5054361;28;20215;-75
2022/06/08 00:52:35;;;;;;;1.77;1.67;;;;;;;14.79;100.00;97857.22;5053935;28;20208;-74
2022/06/08 00:55:04;;;;;;;2.07;1.60;;;;;;;14.75;100.00;97861.13;5054477;28;20225;-74
2022/06/08 00:57:38;;;;;;;1.47;1.37;;;;;;;14.69;100.00;97867.84;5054451;28;20235;-75
2022/06/08 01:00:09;;;;;;;1.50;1.40;;;;;;;14.67;100.00;97860.97;5049447;28;20211;-74
2022/06/08 01:02:35;;;;;;;1.70;1.60;;;;;;;14.67;100.00;97868.94;5054397;28;20227;-73
2022/06/08 01:05:28;;;;;;;4.00;1.73;;;;;;;14.69;100.00;97862.53;5052896;28;20230;-74
2022/06/08 01:07:58;;;;;;;1.70;1.60;;;;;;;14.69;100.00;97856.34;5048891;28;20302;-73
2022/06/08 01:10:27;;;;;;;2.47;1.60;;;;;;;14.68;100.00;97862.66;5053961;28;20231;-73
2022/06/08 01:12:56;;;;;;;2.00;1.70;;;;;;;14.64;100.00;97858.56;5054404;28;20217;-73
2022/06/08 01:15:27;;;;;;;4.17;1.70;;;;;;;14.59;100.00;97852.81;5054208;28;20216;-74
2022/06/08 01:17:53;;;;;;;1.87;1.77;;;;;;;14.57;100.00;97854.78;5054383;28;20235;-74
2022/06/08 01:20:20;;;;;;;1.93;1.60;;;;;;;14.50;100.00;97856.31;5054172;28;20215;-74
2022/06/08 01:22:48;;;;;;;1.53;1.43;;;;;;;14.43;100.00;97853.34;5054097;28;20207;-73
2022/06/08 01:25:16;;;;;;;2.87;1.67;;;;;;;14.34;100.00;97850.66;5053970;28;20215;-72
2022/06/08 01:27:56;;;;;;;3.80;1.70;;;;;;;14.27;100.00;97847.72;5053619;28;20229;-72
2022/06/08 01:30:25;;;;;;;1.80;1.70;;;;;;;14.16;100.00;97841.63;5043430;28;20220;-72
2022/06/08 01:33:24;;;;;;;1.77;1.60;;;;;;;14.03;100.00;97843.69;5053991;28;20240;-74
2022/06/08 01:36:04;;;;;;;3.77;1.40;;;;;;;13.94;100.00;97842.66;5042577;28;20218;-72
2022/06/08 01:38:38;;;;;;;2.10;1.87;;;;;;;13.94;100.00;97839.19;5053997;28;20246;-73
2022/06/08 01:41:19;;;;;;;1.90;1.80;;;;;;;13.86;100.00;97839.84;5053610;28;20674;-73
2022/06/08 01:43:56;;;;;;;2.50;1.90;;;;;;;13.80;100.00;97835.06;5053606;28;20218;-73
2022/06/08 01:46:25;;;;;;;2.70;1.80;;;;;;;13.77;100.00;97830.03;5053586;28;20560;-73
2022/06/08 01:49:06;;;;;;;2.13;1.80;;;;;;;13.68;100.00;97824.66;5053581;28;20223;-73
2022/06/08 01:51:47;;;;;;;2.53;1.70;;;;;;;13.65;100.00;97825.78;5053612;28;20587;-73
2022/06/08 01:54:29;;;;;;;3.13;1.80;;;;;;;13.64;100.00;97820.59;5053390;28;20219;-74
2022/06/08 01:57:07;;;;;;;2.00;1.80;;;;;;;13.62;100.00;97826.03;5051445;28;20244;-74
2022/06/08 01:59:44;;;;;;;4.07;2.30;;;;;;;13.53;100.00;97816.22;5053402;28;20250;-74
2022/06/08 02:02:22;;;;;;;2.47;1.90;;;;;;;13.54;100.00;97819.69;5053119;28;20225;-75
2022/06/08 02:04:53;;;;;;;2.40;1.87;;;;;;;13.50;100.00;97826.25;5053325;28;20630;-73
2022/06/08 02:07:32;;;;;;;2.73;2.07;;;;;;;13.47;100.00;97823.84;5053046;28;20211;-73
2022/06/08 02:10:08;;;;;;;2.37;2.07;;;;;;;13.48;100.00;97814.91;5052901;28;20215;-73
2022/06/08 02:12:39;;;;;;;2.33;2.10;;;;;;;13.47;100.00;97816.72;5053100;28;20210;-74
2022/06/08 02:15:11;;;;;;;2.77;2.03;;;;;;;13.47;100.00;97818.53;5052764;28;20226;-75
2022/06/08 02:17:42;;;;;;;2.20;1.87;;;;;;;13.45;100.00;97809.88;5044398;28;20738;-73
2022/06/08 02:20:17;;;;;;;2.23;1.90;;;;;;;13.41;100.00;97817.25;5053074;28;20567;-73
2022/06/08 02:22:48;;;;;;;2.53;2.00;;;;;;;13.43;100.00;97810.00;5045220;28;20211;-74
2022/06/08 02:25:21;;;;;;;2.60;2.00;;;;;;;13.35;100.00;97803.66;5052967;28;20220;-74
2022/06/08 02:27:55;;;;;;;2.10;1.90;;;;;;;13.34;100.00;97799.31;5053225;28;20218;-75
2022/06/08 02:30:25;;;;;;;2.53;2.20;;;;;;;13.32;100.00;97798.63;5052609;28;20225;-72
2022/06/08 02:35:49;;;;;;;2.20;2.00;;;;;;;13.23;100.00;97796.72;5052942;28;20311;-75
2022/06/08 02:38:19;;;;;;;2.37;2.17;;;;;;;13.22;100.00;97790.59;5052735;28;20245;-73
2022/06/08 02:40:50;;;;;;;3.30;2.30;;;;;;;13.21;100.00;97790.72;5052833;28;20219;-74
2022/06/08 02:43:21;;;;;;;2.37;2.10;;;;;;;13.19;100.00;97792.66;5052735;28;20225;-74
2022/06/08 02:45:57;;;;;;;2.90;2.20;;;;;;;13.14;100.00;97792.22;5052785;28;20208;-74
2022/06/08 02:48:24;;;;;;;2.40;2.20;;;;;;;13.16;100.00;97787.63;5051219;28;20214;-73
2022/06/08 02:50:54;;;;;;;2.73;2.10;;;;;;;13.16;100.00;97795.56;5052879;28;20214;-74
2022/06/08 02:53:50;;;;;;;2.50;2.27;;;;;;;13.18;100.00;97793.63;5052574;28;20221;-73
2022/06/08 02:56:26;;;;;;;2.53;2.20;;;;;;;13.23;100.00;97786.97;5047627;28;20213;-73
2022/06/08 02:58:58;;;;;;;2.47;2.27;;;;;;;13.31;100.00;97784.50;5043923;28;20223;-73
2022/06/08 03:01:32;;;;;;;2.40;2.10;;;;;;;13.37;100.00;97785.78;5053002;28;20223;-73
2022/06/08 03:04:06;;;;;;;2.00;1.87;;;;;;;13.35;100.00;97779.75;5046401;28;20222;-74
2022/06/08 03:06:37;;;;;;;3.67;2.17;;;;;;;13.33;100.00;97776.41;5052277;28;20710;-73
2022/06/08 03:09:06;;;;;;;2.00;1.90;;;;;;;13.30;100.00;97780.16;5052493;28;20632;-73
2022/06/08 03:11:39;;;;;;;2.50;2.30;;;;;;;13.24;100.00;97771.88;5052543;28;20213;-74
2022/06/08 03:14:09;;;;;;;2.30;2.10;;;;;;;13.21;100.00;97775.63;5051525;28;20672;-73
2022/06/08 03:16:39;;;;;;;2.90;2.30;;;;;;;13.19;100.00;97774.06;5047710;28;20219;-74
2022/06/08 03:19:06;;;;;;;2.50;2.30;;;;;;;13.18;100.00;97772.41;5056416;28;20215;-73
2022/06/08 03:21:33;;;;;;;3.50;2.40;;;;;;;13.20;100.00;97770.47;5056273;28;20229;-74
2022/06/08 03:24:00;;;;;;;3.67;2.27;;;;;;;13.25;100.00;97765.59;5056306;28;20210;-73
2022/06/08 03:26:28;;;;;;;5.67;2.87;;;;;;;13.26;100.00;97767.31;5056286;28;20213;-75
2022/06/08 03:28:56;;;;;;;2.60;2.40;;;;;;;13.32;100.00;97753.50;5056355;28;20209;-73
2022/06/08 03:31:23;;;;;;;2.47;2.27;;;;;;;13.35;100.00;97763.84;5055863;28;20271;-74
2022/06/08 03:33:49;;;;;;;3.70;2.23;;;;;;;13.40;100.00;97756.31;5056157;28;20208;-74
2022/06/08 03:36:16;;;;;;;2.73;2.53;;;;;;;13.48;100.00;97753.84;5056017;28;20211;-74
2022/06/08 03:38:43;;;;;;;2.83;2.50;;;;;;;13.47;100.00;97762.78;5055995;28;20248;-74
2022/06/08 03:41:10;;;;;;;3.63;2.43;;;;;;;13.51;100.00;97764.22;5054417;28;20224;-73
2022/06/08 03:43:36;;;;;;;3.07;2.50;;;;;;;13.59;100.00;97767.03;5055699;28;20676;-73
2022/06/08 03:46:07;;;;;;;2.50;2.30;;;;;;;13.64;100.00;97764.81;5055917;28;20225;-73
2022/06/08 03:48:34;;;;;;;2.50;2.30;;;;;;;13.65;100.00;97766.50;5055579;28;20222;-73
2022/06/08 03:51:01;;;;;;;2.40;2.10;;;;;;;13.72;100.00;97762.31;5055516;28;20219;-73
2022/06/08 03:53:32;;;;;;;2.80;2.43;;;;;;;13.81;100.00;97759.69;5055600;28;20213;-73
2022/06/08 03:56:02;;;;;;;4.00;2.40;;;;;;;13.88;100.00;97760.03;5047634;28;20341;-73
2022/06/08 03:58:28;;;;;;;2.77;2.40;;;;;;;13.92;100.00;97758.75;5055470;28;20239;-73
2022/06/08 04:00:55;;;;;;;4.27;2.97;;;;;;;14.00;100.00;97761.59;5048133;28;20217;-74
2022/06/08 04:03:23;;;;;;;3.87;2.63;;;;;;;14.09;100.00;97766.06;5055521;28;20215;-74
2022/06/08 04:05:50;;;;;;;3.37;2.70;;;;;;;14.19;100.00;97764.31;5055247;28;20222;-73
2022/06/08 04:08:16;;;;;;;2.93;2.60;;;;;;;14.30;100.00;97766.88;5054412;28;20224;-73
2022/06/08 04:10:43;;;;;;;4.07;2.50;;;;;;;14.43;100.00;97764.78;5055209;28;20219;-73
2022/06/08 04:13:10;;;;;;;2.97;2.40;;;;;;;14.56;100.00;97770.66;5055573;28;20215;-73
2022/06/08 04:15:45;;;;;;;2.60;2.40;;;;;;;14.62;100.00;97767.44;5055468;28;20214;-73
2022/06/08 04:18:14;;;;;;;2.60;2.40;;;;;;;14.72;100.00;97765.63;5055302;28;20238;-73
2022/06/08 04:20:44;;;;;;;2.53;2.33;;;;;;;14.81;100.00;97770.97;5055420;28;20219;-73
2022/06/08 04:23:11;;;;;;;3.80;2.13;;;;;;;14.91;100.00;97770.94;5055185;28;20248;-73
2022/06/08 04:25:39;;;;;;;3.33;2.50;;;;;;;15.01;100.00;97766.44;5054776;28;20214;-73
2022/06/08 04:28:06;;;;;;;3.43;2.23;;;;;;;15.12;100.00;97764.47;5054871;28;20220;-73
2022/06/08 04:30:33;;;;;;;2.77;2.33;;;;;;;15.24;100.00;97770.47;5055002;28;20220;-73
2022/06/08 04:33:00;;;;;;;2.47;2.10;;;;;;;15.31;100.00;97768.91;5053260;28;20241;-73
2022/06/08 04:35:27;;;;;;;2.57;1.73;;;;;;;15.41;100.00;97769.75;5054607;28;20219;-73
2022/06/08 04:37:55;;;;;;;4.43;2.30;;;;;;;15.48;100.00;97766.38;5054321;28;20261;-73
2022/06/08 04:40:23;;;;;;;2.10;1.90;;;;;;;15.54;100.00;97764.94;5054800;28;20222;-73
2022/06/08 04:42:50;;;;;;;5.20;1.90;;;;;;;15.57;100.00;97759.34;5054755;28;20216;-74
2022/06/08 04:45:17;;;;;;;2.80;2.37;;;;;;;15.63;100.00;97758.75;5054841;28;20227;-73
2022/06/08 04:47:43;;;;;;;3.60;2.10;;;;;;;15.62;100.00;97751.72;5054537;28;20685;-74
2022/06/08 04:50:11;;;;;;;2.00;1.80;;;;;;;15.63;100.00;97750.78;5054761;28;20216;-73
2022/06/08 04:52:38;;;;;;;2.83;1.90;;;;;;;15.61;100.00;97747.41;5054393;28;20238;-73
2022/06/08 04:55:12;;;;;;;2.07;1.87;;;;;;;15.62;100.00;97757.06;5054350;28;20216;-73
2022/06/08 04:57:38;;;;;;;2.33;2.10;;;;;;;15.63;100.00;97754.25;5054523;28;20236;-74
2022/06/08 05:00:05;;;;;;;4.50;2.03;;;;;;;15.68;100.00;97761.81;5052775;28;20254;-74
2022/06/08 05:02:44;;;;;;;2.57;1.83;;;;;;;15.80;100.00;97750.81;5054400;28;20221;-73
2022/06/08 05:05:12;;;;;;;2.20;1.90;;;;;;;15.90;100.00;97756.97;5053875;28;20231;-73
2022/06/08 05:07:39;;;;;;;3.40;1.60;;;;;;;16.02;100.00;97757.59;5054367;28;20212;-74
2022/06/08 05:10:09;;;;;;;1.93;1.80;;;;;;;16.24;100.00;97761.53;5054544;28;20223;-73
2022/06/08 05:12:36;;;;;;;3.63;1.87;;;;;;;16.56;97.40;97766.38;5054500;28;20219;-73
2022/06/08 05:15:06;;;;;;;3.07;1.97;;;;;;;16.97;95.63;97771.09;5054027;28;20208;-73
2022/06/08 05:17:33;;;;;;;2.60;1.97;;;;;;;17.36;93.21;97767.91;5053945;28;20243;-76
2022/06/08 05:19:59;;;;;;;2.97;1.70;;;;;;;17.81;89.57;97765.84;5053806;28;20208;-76
2022/06/08 05:22:26;;;;;;;3.67;1.73;;;;;;;18.18;87.37;97758.38;5053732;28;20222;-76
2022/06/08 05:24:53;;;;;;;2.77;1.97;;;;;;;18.37;86.50;97766.16;5052120;28;20704;-75
2022/06/08 05:27:20;;;;;;;2.73;1.80;;;;;;;18.65;84.66;97775.56;5054004;28;20216;-76
2022/06/08 05:29:47;;;;;;;2.87;1.83;;;;;;;19.37;81.99;97766.72;5053674;28;20696;-76
2022/06/08 05:32:14;;;;;;;2.50;2.03;;;;;;;20.21;76.55;97763.38;5053560;28;20222;-76
2022/06/08 05:34:40;;;;;;;3.03;1.80;;;;;;;21.40;71.29;97760.88;5053578;28;20216;-75
2022/06/08 05:37:07;;;;;;;4.50;2.00;;;;;;;22.53;63.72;97752.38;5053134;28;20242;-76
2022/06/08 05:39:33;;;;;;;3.43;2.00;;;;;;;23.43;60.54;97754.38;5053939;28;20217;-76
2022/06/08 05:42:00;;;;;;;3.77;1.80;;;;;;;24.05;57.35;97742.59;5053652;28;20597;-77
2022/06/08 05:44:28;;;;;;;4.03;1.80;;;;;;;24.39;54.44;97744.44;5053610;28;20208;-78
2022/06/08 05:46:55;;;;;;;3.53;1.70;;;;;;;24.52;51.65;97753.44;5053809;28;20212;-77
2022/06/08 05:49:21;;;;;;;2.87;1.40;;;;;;;24.67;50.76;97756.81;5053648;28;20582;-78
2022/06/08 05:51:48;;;;;;;2.90;1.50;;;;;;;24.93;49.90;97748.78;5051336;28;20222;-74
2022/06/08 05:54:14;;;;;;;2.93;1.33;;;;;;;25.20;47.84;97744.25;5050389;28;20215;-75
2022/06/08 05:56:41;;;;;;;3.10;1.50;;;;;;;25.50;47.02;97750.97;5052481;28;20215;-74
2022/06/08 05:59:08;;;;;;;4.10;1.33;;;;;;;25.87;45.63;97751.13;5053312;28;20247;-74
2022/06/08 06:01:36;;;;;;;2.17;1.40;;;;;;;26.39;45.38;97748.31;5053302;28;20211;-74
2022/06/08 06:04:05;;;;;;;3.47;1.20;;;;;;;26.48;43.99;97746.19;5053326;28;20216;-74
2022/06/08 06:06:32;;;;;;;3.20;1.60;;;;;;;26.54;43.76;97743.50;5053242;28;20220;-75
2022/06/08 06:08:59;;;;;;;3.57;1.30;;;;;;;26.35;44.65;97747.09;5053124;28;20265;-75
2022/06/08 06:11:26;;;;;;;2.40;1.10;;;;;;;26.84;44.04;97749.19;5053257;28;20216;-75
2022/06/08 06:13:52;;;;;;;2.73;1.43;;;;;;;27.26;42.83;97741.19;5053273;28;20216;-74
2022/06/08 06:16:19;;;;;;;2.13;1.00;;;;;;;27.77;42.27;97739.16;5053029;28;20208;-74
2022/06/08 06:18:47;;;;;;;2.60;1.30;;;;;;;27.87;40.49;97737.56;5051357;28;20237;-73
2022/06/08 06:21:19;;;;;;;1.57;1.17;;;;;;;28.04;40.83;97732.38;5052850;28;20226;-73
2022/06/08 06:23:46;;;;;;;3.03;1.17;;;;;;;28.45;40.29;97717.13;5052986;28;20207;-73
2022/06/08 06:26:12;;;;;;;3.17;1.40;;;;;;;28.71;39.44;97726.78;5052965;28;20219;-74
2022/06/08 06:28:39;;;;;;;2.03;1.17;;;;;;;29.03;39.56;97722.84;5053019;28;20215;-74
2022/06/08 06:31:07;;;;;;;3.20;1.13;;;;;;;28.55;40.44;97732.88;5052740;28;20548;-73
2022/06/08 06:33:34;;;;;;;3.10;1.30;;;;;;;27.92;40.61;97731.47;5052810;28;20212;-74
2022/06/08 06:36:03;;;;;;;3.60;1.30;;;;;;;27.85;41.04;97726.13;5052614;28;20238;-73
2022/06/08 06:38:30;;;;;;;3.83;1.23;;;;;;;27.50;41.01;97715.94;5052966;28;20679;-73
2022/06/08 06:40:56;;;;;;;1.87;1.47;;;;;;;27.65;40.93;97724.59;5052521;28;20219;-75
2022/06/08 06:43:23;;;;;;;3.57;1.27;;;;;;;27.68;40.57;97721.44;5051202;28;20235;-73
2022/06/08 06:45:49;;;;;;;2.00;1.20;;;;;;;27.41;41.71;97728.16;5052830;28;20228;-75
2022/06/08 06:48:16;;;;;;;3.83;1.43;;;;;;;27.03;42.48;97719.22;5052711;28;20574;-75
2022/06/08 06:50:42;;;;;;;2.23;1.27;;;;;;;26.99;42.18;97715.28;5056031;28;20223;-74
2022/06/08 06:53:12;;;;;;;2.33;1.20;;;;;;;26.92;43.41;97717.22;5056539;28;20215;-74
2022/06/08 06:55:39;;;;;;;2.83;1.17;;;;;;;27.38;42.76;97711.47;5056687;28;20212;-74
2022/06/08 06:58:06;;;;;;;2.37;1.30;;;;;;;27.31;42.79;97716.94;5056486;28;20242;-74
2022/06/08 07:00:34;;;;;;;2.67;1.20;;;;;;;27.28;43.08;97714.69;5056834;28;20218;-74
2022/06/08 07:03:00;;;;;;;2.33;1.30;;;;;;;26.79;44.07;97711.03;5056968;28;20216;-74
2022/06/08 07:05:32;;;;;;;2.07;1.20;;;;;;;26.17;45.66;97711.72;5056607;28;20581;-74
2022/06/08 07:07:59;;;;;;;1.50;1.10;;;;;;;25.57;45.98;97705.78;5056493;28;20216;-75
2022/06/08 07:10:27;;;;;;;2.53;1.47;;;;;;;24.75;48.14;97710.69;5054855;28;20250;-75
2022/06/08 07:12:53;;;;;;;2.53;1.20;;;;;;;24.04;50.43;97705.84;5056112;28;20212;-74
2022/06/08 07:15:22;;;;;;;3.27;1.20;;;;;;;23.24;53.05;97707.34;5056065;28;20208;-74
2022/06/08 07:17:49;;;;;;;2.27;1.20;;;;;;;22.54;55.56;97706.41;5056330;28;20219;-74
2022/06/08 07:20:15;;;;;;;2.47;1.30;;;;;;;21.97;57.87;97697.41;5056036;28;20215;-74
2022/06/08 07:22:42;;;;;;;2.00;1.27;;;;;;;21.67;60.19;97690.38;5056344;28;20218;-74
2022/06/08 07:25:10;;;;;;;1.30;1.10;;;;;;;21.51;60.74;97679.75;5056187;28;20609;-74
2022/06/08 07:27:38;;;;;;;2.37;1.10;;;;;;;21.41;61.32;97684.59;5056121;28;20220;-75
2022/06/08 07:30:06;;;;;;;5.33;1.40;;;;;;;21.30;62.00;97682.34;5056075;28;20215;-75
2022/06/08 07:32:32;;;;;;;2.77;1.30;;;;;;;21.23;63.32;97681.44;5055887;28;20340;-74
2022/06/08 07:34:59;;;;;;;3.07;1.43;;;;;;;21.20;63.23;97681.78;5054144;28;20215;-75
2022/06/08 07:37:26;;;;;;;2.63;1.50;;;;;;;21.12;63.80;97673.78;5056179;28;20243;-74
2022/06/08 07:39:53;;;;;;;3.83;1.40;;;;;;;21.13;64.88;97667.41;5055558;28;20693;-75
2022/06/08 07:42:20;;;;;;;2.70;1.47;;;;;;;21.15;63.87;97662.66;5055959;28;20224;-75
2022/06/08 07:44:48;;;;;;;3.47;1.60;;;;;;;21.20;63.60;97665.66;5055864;28;20215;-75
2022/06/08 07:47:14;;;;;;;1.40;1.30;;;;;;;21.19;63.14;97658.59;5055650;28;20224;-75
2022/06/08 07:49:41;;;;;;;3.07;1.40;;;;;;;21.22;64.13;97658.22;5055482;28;20670;-75
2022/06/08 07:52:10;;;;;;;2.63;1.27;;;;;;;21.28;63.77;97651.28;5055885;28;20215;-75
2022/06/08 07:54:38;;;;;;;2.20;1.27;;;;;;;21.30;63.28;97654.63;5055808;28;20216;-75
2022/06/08 07:57:06;;;;;;;1.97;1.27;;;;;;;21.29;63.79;97653.81;5055600;28;20211;-75
2022/06/08 07:59:36;;;;;;;2.40;1.20;;;;;;;21.28;64.89;97652.09;5055671;28;20594;-75
2022/06/08 08:02:06;;;;;;;3.00;1.37;;;;;;;21.28;63.50;97640.53;5053829;28;20238;-76
2022/06/08 08:04:33;;;;;;;2.23;1.20;;;;;;;21.37;64.40;97640.28;5055504;28;20582;-75
2022/06/08 08:06:59;;;;;;;3.37;1.40;;;;;;;21.39;62.82;97637.41;5055402;28;20674;-75
2022/06/08 08:09:26;;;;;;;2.93;1.13;;;;;;;21.41;60.79;97633.50;5055142;28;20216;-76
2022/06/08 08:11:54;;;;;;;2.30;1.23;;;;;;;21.32;61.20;97631.06;5055041;28;20704;-76
2022/06/08 08:14:23;;;;;;;2.60;1.47;;;;;;;21.29;62.17;97626.94;5055304;28;20211;-77
2022/06/08 08:16:50;;;;;;;3.60;1.13;;;;;;;21.30;62.59;97635.81;5055060;28;20697;-75
2022/06/08 08:19:21;;;;;;;3.40;1.33;;;;;;;21.35;61.71;97628.88;5054857;28;20697;-74
2022/06/08 08:21:48;;;;;;;1.77;1.00;;;;;;;21.35;59.65;97623.50;5055033;28;20219;-75
2022/06/08 08:24:15;;;;;;;2.40;1.20;;;;;;;21.44;61.84;97622.38;5055263;28;20219;-74
2022/06/08 08:26:44;;;;;;;2.63;1.50;;;;;;;21.54;63.23;97624.78;5054945;28;20215;-74
2022/06/08 08:29:11;;;;;;;2.73;1.40;;;;;;;21.53;62.05;97615.88;5054412;28;20212;-75
2022/06/08 08:31:38;;;;;;;3.63;1.30;;;;;;;21.65;62.92;97622.44;5055121;28;20210;-75
2022/06/08 08:34:05;;;;;;;3.40;1.40;;;;;;;21.73;60.91;97619.69;5054735;28;20732;-75
2022/06/08 08:36:32;;;;;;;3.77;1.40;;;;;;;21.76;59.32;97611.25;5054529;28;20216;-76
2022/06/08 08:38:59;;;;;;;2.90;1.20;;;;;;;21.90;60.35;97614.94;5054882;28;20271;-74
2022/06/08 08:44:26;;;;;;;2.50;1.23;;;;;;;22.06;58.55;97609.34;5048271;28;20215;-76
2022/06/08 08:47:01;;;;;;;2.00;1.03;;;;;;;22.16;56.73;97610.69;5054819;28;20211;-75
2022/06/08 08:49:32;;;;;;;1.50;1.10;;;;;;;22.15;57.93;97614.41;5054802;28;20246;-75
2022/06/08 08:52:03;;;;;;;3.27;1.30;;;;;;;22.16;55.36;97608.00;5047008;28;20287;-75
2022/06/08 08:54:34;;;;;;;2.80;1.57;;;;;;;22.19;54.77;97596.03;5052933;28;20208;-76
2022/06/08 08:57:13;;;;;;;2.67;1.40;;;;;;;22.33;56.05;97597.81;5054742;28;20263;-76
2022/06/08 08:59:44;;;;;;;2.40;1.23;;;;;;;22.42;57.05;97605.56;5054502;28;20232;-75
2022/06/08 09:02:15;;;;;;;3.03;1.10;;;;;;;22.52;57.15;97589.13;5054464;28;20227;-75
2022/06/08 09:04:47;;;;;;;1.33;1.10;;;;;;;22.70;55.38;97582.25;5045902;28;20223;-75
2022/06/08 09:07:17;;;;;;;3.30;1.30;;;;;;;22.97;54.78;97581.41;5054479;28;20216;-75
2022/06/08 09:09:44;;;;;;;1.80;1.30;;;;;;;23.12;55.12;97571.38;5047507;28;20219;-75
2022/06/08 09:12:13;;;;;;;3.90;1.40;;;;;;;23.28;55.95;97576.47;5053397;28;20234;-76
2022/06/08 09:14:49;;;;;;;2.10;1.20;;;;;;;23.42;53.43;97562.03;5053960;28;20215;-76
2022/06/08 09:17:18;;;;;;;2.67;1.27;;;;;;;23.56;53.80;97569.16;5053847;28;20208;-75
2022/06/08 09:19:47;;;;;;;3.43;1.07;;;;;;;23.58;53.89;97561.69;5052352;28;20231;-75
2022/06/08 09:22:25;;;;;;;2.50;1.20;;;;;;;23.67;55.67;97565.91;5054126;28;20216;-75
2022/06/08 09:24:55;;;;;;;2.37;1.30;;;;;;;23.74;55.61;97550.56;5053570;28;20696;-76
2022/06/08 09:27:25;;;;;;;3.23;1.30;;;;;;;23.84;53.10;97556.41;5052150;28;20273;-74
2022/06/08 09:29:57;;;;;;;4.07;1.33;;;;;;;23.77;52.38;97547.44;5051716;28;20238;-76
2022/06/08 09:32:30;;;;;;;4.23;1.60;;;;;;;23.75;53.07;97546.81;5052562;28;20279;-76
2022/06/08 09:35:00;;;;;;;4.23;1.50;;;;;;;23.79;52.26;97540.00;5052350;28;20213;-76
2022/06/08 09:37:29;;;;;;;3.07;1.20;;;;;;;23.79;50.86;97536.47;5052409;28;20248;-77
2022/06/08 09:39:58;;;;;;;3.93;1.30;;;;;;;23.93;52.66;97532.78;5052456;28;20248;-77
2022/06/08 09:42:43;;;;;;;2.13;1.10;;;;;;;23.96;52.22;97533.22;5052584;28;20462;-76
2022/06/08 09:45:27;;;;;;;2.73;1.10;;;;;;;24.00;50.57;97529.06;5044225;28;20571;-75
2022/06/08 09:53:47;;;;;;;2.60;1.17;;;;;;;24.26;49.43;97510.22;5052088;28;20262;-75
2022/06/08 09:56:25;;;;;;;4.27;1.40;;;;;;;24.33;50.51;97508.34;5052241;28;20306;-75
2022/06/08 09:59:09;;;;;;;1.53;1.10;;;;;;;24.55;49.06;97501.72;5044508;28;20236;-75
2022/06/08 10:01:40;;;;;;;2.17;1.20;;;;;;;24.85;49.48;97505.66;5052078;28;20219;-75
2022/06/08 10:04:26;;;;;;;2.13;1.00;;;;;;;24.89;48.64;97498.81;5051790;28;20216;-77
2022/06/08 10:07:02;;;;;;;4.27;1.20;;;;;;;24.84;50.60;97503.16;5045952;28;20219;-76
2022/06/08 10:09:52;;;;;;;3.20;1.20;;;;;;;24.66;49.33;97500.28;5051944;28;20214;-77
2022/06/08 10:12:25;;;;;;;2.40;1.10;;;;;;;24.59;48.64;97497.59;5050231;28;20219;-76
2022/06/08 10:14:57;;;;;;;1.50;0.93;;;;;;;24.57;49.12;97493.44;5051758;28;20220;-77
2022/06/08 10:17:29;;;;;;;2.90;1.30;;;;;;;24.55;48.76;97496.31;5051709;28;20216;-75
2022/06/08 10:20:04;;;;;;;3.43;1.20;;;;;;;24.56;48.84;97481.75;5051514;28;20586;-76
2022/06/08 10:22:36;;;;;;;3.27;1.07;;;;;;;24.66;47.16;97493.00;5045186;28;20218;-76
2022/06/08 10:25:13;;;;;;;1.43;0.90;;;;;;;24.85;45.50;97485.91;5051462;28;20223;-76
2022/06/08 10:27:47;;;;;;;2.37;1.10;;;;;;;25.16;45.61;97484.19;5051775;28;20223;-76
2022/06/08 10:30:19;;;;;;;1.90;1.13;;;;;;;25.49;46.61;97479.50;5051719;28;20214;-76
2022/06/08 10:32:50;;;;;;;2.03;1.00;;;;;;;25.74;44.31;97479.59;5048351;28;20219;-76
2022/06/08 10:35:31;;;;;;;2.00;1.00;;;;;;;25.78;43.22;97472.72;5051716;28;20274;-76
2022/06/08 10:37:59;;;;;;;1.23;0.93;;;;;;;25.75;41.78;97468.56;5049339;28;20250;-77
2022/06/08 10:40:30;;;;;;;1.27;1.00;;;;;;;25.70;42.71;97464.81;5051000;28;20720;-77
2022/06/08 10:42:57;;;;;;;1.50;1.00;;;;;;;25.56;44.74;97464.09;5051490;28;20251;-77
2022/06/08 10:45:47;;;;;;;3.07;1.00;;;;;;;25.45;43.69;97456.63;5051202;28;20266;-77
2022/06/08 10:48:44;;;;;;;3.40;0.90;;;;;;;25.48;41.72;97453.47;5045525;28;20219;-76
2022/06/08 10:51:39;;;;;;;1.43;0.80;;;;;;;25.69;39.88;97447.78;5044884;28;20266;-77
2022/06/08 10:54:55;;;;;;;2.27;0.70;;;;;;;25.73;39.32;97451.69;5045241;28;20675;-77
2022/06/08 10:57:51;;;;;;;1.80;0.60;;;;;;;25.90;40.49;97444.75;5047528;28;20307;-77
2022/06/08 11:00:48;;;;;;;2.37;0.87;;;;;;;26.08;38.87;97446.72;5042839;28;20243;-78
2022/06/08 11:03:31;;;;;;;1.67;0.97;;;;;;;26.19;38.93;97441.41;5051142;28;20220;-77
2022/06/08 11:05:57;;;;;;;1.13;0.70;;;;;;;26.29;39.47;97433.63;5044393;28;20262;-76
2022/06/08 11:08:25;;;;;;;0.90;0.60;;;;;;;26.24;37.07;97421.78;5051354;28;20216;-77
2022/06/08 11:10:55;;;;;;;0.97;0.60;;;;;;;26.13;37.37;97412.50;5051422;28;20303;-76
2022/06/08 11:13:32;;;;;;;1.80;0.80;;;;;;;26.01;37.86;97419.69;5051158;28;20295;-76
2022/06/08 11:16:06;;;;;;;1.70;0.73;;;;;;;25.74;38.81;97420.88;5047763;28;20216;-75
2022/06/08 11:18:41;;;;;;;2.13;1.00;;;;;;;25.72;39.59;97420.25;5043607;28;20216;-77
2022/06/08 11:21:26;;;;;;;1.50;0.80;;;;;;;25.75;41.21;97425.25;5051191;28;20247;-75
2022/06/08 11:23:55;;;;;;;1.43;0.80;;;;;;;25.76;41.27;97421.50;5051548;28;20223;-77
2022/06/08 11:26:48;;;;;;;1.40;0.90;;;;;;;25.84;39.72;97421.22;5051299;28;20223;-76
2022/06/08 11:29:42;;;;;;;2.00;0.80;;;;;;;25.87;37.67;97414.53;5033804;28;20307;-76
2022/06/08 11:32:26;;;;;;;1.83;0.80;;;;;;;25.93;37.01;97411.84;5049103;28;20208;-76
2022/06/08 11:35:06;;;;;;;1.07;0.70;;;;;;;25.98;36.46;97409.28;5050915;28;20208;-76
2022/06/08 11:37:45;;;;;;;2.27;1.17;;;;;;;26.10;37.92;97391.25;5054788;28;20232;-77
2022/06/08 11:40:15;;;;;;;2.57;0.90;;;;;;;26.21;39.78;97389.75;5047087;28;20239;-76
2022/06/08 11:42:50;;;;;;;1.50;1.00;;;;;;;26.20;40.10;97393.50;5054333;28;20212;-77
2022/06/08 11:45:20;;;;;;;2.40;0.97;;;;;;;26.17;40.54;97394.78;5054066;28;20211;-75
2022/06/08 11:47:53;;;;;;;1.97;0.83;;;;;;;26.10;40.69;97391.25;5050931;28;20735;-75
2022/06/08 11:50:23;;;;;;;2.87;1.00;;;;;;;26.14;40.44;97392.50;5053591;28;20216;-76
2022/06/08 11:52:59;;;;;;;1.40;1.10;;;;;;;26.16;40.15;97393.09;5053438;28;20246;-78
2022/06/08 11:55:27;;;;;;;0.83;0.70;;;;;;;26.16;40.73;97390.38;5052523;28;20239;-77
2022/06/08 11:57:57;;;;;;;1.87;0.83;;;;;;;26.10;39.07;97385.84;5047064;28;20542;-76